DCM850 KGPT-KSFB
Flight info
| Callsign | DCM850 |
|---|---|
| Flight time | 1h 28m |
| Altitude | 29000 |
| Route | SJI CILLA |
| Aircraft | TBM8/L-SDFGRWY/S |
Departure
| Time | 2026-04-20 15:22 |
|---|---|
| Airport | Gulfport Biloxi International Airport (KGPT) |
Arrival
| Time | 2026-04-20 16:50 |
|---|---|
| Airport | Orlando Sanford International Airport (KSFB) |
| Time | Latitude | Longitude | Altitude | Speed | Heading |
|---|---|---|---|---|---|
| 2026-04-20 15:12 | 30.40318 | -89.07453 | 25 ft | 0 kts | 131° |
| 2026-04-20 15:18 | 30.40318 | -89.07450 | 25 ft | 1 kts | 80° |
| 2026-04-20 15:18 | 30.40365 | -89.07437 | 25 ft | 14 kts | 24° |
| 2026-04-20 15:18 | 30.40463 | -89.07338 | 26 ft | 20 kts | 46° |
| 2026-04-20 15:19 | 30.40589 | -89.07398 | 27 ft | 23 kts | 314° |
| 2026-04-20 15:19 | 30.40692 | -89.07523 | 25 ft | 19 kts | 314° |
| 2026-04-20 15:19 | 30.40777 | -89.07625 | 25 ft | 16 kts | 314° |
| 2026-04-20 15:19 | 30.40849 | -89.07708 | 25 ft | 15 kts | 315° |
| 2026-04-20 15:20 | 30.40944 | -89.07817 | 26 ft | 24 kts | 315° |
| 2026-04-20 15:20 | 30.41087 | -89.07980 | 26 ft | 32 kts | 314° |
| 2026-04-20 15:20 | 30.41190 | -89.08165 | 25 ft | 25 kts | 314° |
| 2026-04-20 15:20 | 30.41304 | -89.08292 | 25 ft | 21 kts | 315° |
| 2026-04-20 15:21 | 30.41393 | -89.08320 | 25 ft | 8 kts | 36° |
| 2026-04-20 15:21 | 30.41426 | -89.08281 | 27 ft | 5 kts | 45° |
| 2026-04-20 15:21 | 30.41476 | -89.08196 | 27 ft | 22 kts | 111° |
| 2026-04-20 15:21 | 30.41287 | -89.07978 | 28 ft | 64 kts | 137° |
| 2026-04-20 15:22 | 30.40843 | -89.07475 | 26 ft | 112 kts | 135° |
| 2026-04-20 15:22 | 30.40255 | -89.06873 | 438 ft | 105 kts | 127° |
| 2026-04-20 15:22 | 30.40115 | -89.06114 | 847 ft | 103 kts | 68° |
| 2026-04-20 15:22 | 30.40619 | -89.05476 | 1258 ft | 118 kts | 25° |
| 2026-04-20 15:23 | 30.41328 | -89.05106 | 1872 ft | 107 kts | 44° |
| 2026-04-20 15:23 | 30.41764 | -89.04472 | 2476 ft | 99 kts | 64° |
| 2026-04-20 15:23 | 30.42136 | -89.03784 | 2952 ft | 101 kts | 61° |
| 2026-04-20 15:23 | 30.42487 | -89.03075 | 3460 ft | 103 kts | 63° |
| 2026-04-20 15:24 | 30.42830 | -89.02346 | 4005 ft | 105 kts | 61° |
| 2026-04-20 15:24 | 30.43191 | -89.01582 | 4407 ft | 110 kts | 62° |
| 2026-04-20 15:24 | 30.43552 | -89.00782 | 4887 ft | 114 kts | 60° |
| 2026-04-20 15:24 | 30.43930 | -88.99963 | 5371 ft | 117 kts | 60° |
| 2026-04-20 15:25 | 30.44305 | -88.99131 | 5824 ft | 117 kts | 59° |
| 2026-04-20 15:25 | 30.44690 | -88.98280 | 6220 ft | 121 kts | 58° |
| 2026-04-20 15:25 | 30.45088 | -88.97399 | 6611 ft | 125 kts | 57° |
| 2026-04-20 15:25 | 30.45488 | -88.96509 | 7012 ft | 125 kts | 57° |
| 2026-04-20 15:26 | 30.45893 | -88.95612 | 7420 ft | 126 kts | 56° |
| 2026-04-20 15:26 | 30.46298 | -88.94710 | 7820 ft | 126 kts | 56° |
| 2026-04-20 15:26 | 30.46707 | -88.93802 | 8219 ft | 128 kts | 57° |
| 2026-04-20 15:26 | 30.47121 | -88.92901 | 8657 ft | 129 kts | 57° |
| 2026-04-20 15:27 | 30.47530 | -88.91973 | 9065 ft | 129 kts | 56° |
| 2026-04-20 15:27 | 30.47950 | -88.91045 | 9506 ft | 131 kts | 55° |
| 2026-04-20 15:27 | 30.48371 | -88.90100 | 9919 ft | 132 kts | 56° |
| 2026-04-20 15:27 | 30.48802 | -88.89154 | 10317 ft | 133 kts | 57° |
| 2026-04-20 15:28 | 30.49233 | -88.88193 | 10675 ft | 135 kts | 55° |
| 2026-04-20 15:28 | 30.49674 | -88.87219 | 11038 ft | 138 kts | 55° |
| 2026-04-20 15:28 | 30.50123 | -88.86223 | 11398 ft | 140 kts | 55° |
| 2026-04-20 15:28 | 30.50577 | -88.85205 | 11766 ft | 143 kts | 54° |
| 2026-04-20 15:29 | 30.51043 | -88.84177 | 12126 ft | 145 kts | 54° |
| 2026-04-20 15:29 | 30.51512 | -88.83132 | 12488 ft | 147 kts | 54° |
| 2026-04-20 15:29 | 30.51992 | -88.82068 | 12839 ft | 150 kts | 54° |
| 2026-04-20 15:29 | 30.52479 | -88.80985 | 13210 ft | 153 kts | 53° |
| 2026-04-20 15:30 | 30.52974 | -88.79886 | 13561 ft | 155 kts | 53° |
| 2026-04-20 15:30 | 30.53475 | -88.78769 | 13919 ft | 157 kts | 53° |
| 2026-04-20 15:30 | 30.53977 | -88.77649 | 14256 ft | 159 kts | 53° |
| 2026-04-20 15:30 | 30.54492 | -88.76500 | 14564 ft | 161 kts | 53° |
| 2026-04-20 15:31 | 30.55014 | -88.75339 | 14877 ft | 163 kts | 53° |
| 2026-04-20 15:31 | 30.55542 | -88.74164 | 15203 ft | 165 kts | 53° |
| 2026-04-20 15:31 | 30.56074 | -88.72973 | 15520 ft | 167 kts | 53° |
| 2026-04-20 15:31 | 30.56615 | -88.71769 | 15855 ft | 169 kts | 53° |
| 2026-04-20 15:32 | 30.57161 | -88.70552 | 16172 ft | 171 kts | 53° |
| 2026-04-20 15:32 | 30.57713 | -88.69319 | 16476 ft | 173 kts | 53° |
| 2026-04-20 15:32 | 30.58265 | -88.68084 | 16779 ft | 175 kts | 54° |
| 2026-04-20 15:32 | 30.58830 | -88.66824 | 17085 ft | 177 kts | 53° |
| 2026-04-20 15:33 | 30.59401 | -88.65549 | 17388 ft | 179 kts | 54° |
| 2026-04-20 15:33 | 30.59977 | -88.64262 | 17704 ft | 181 kts | 53° |
| 2026-04-20 15:33 | 30.60560 | -88.62958 | 18003 ft | 183 kts | 54° |
| 2026-04-20 15:33 | 30.61147 | -88.61643 | 18303 ft | 185 kts | 54° |
| 2026-04-20 15:34 | 30.61742 | -88.60315 | 18606 ft | 186 kts | 54° |
| 2026-04-20 15:34 | 30.62339 | -88.58975 | 18858 ft | 187 kts | 54° |
| 2026-04-20 15:34 | 30.62938 | -88.57637 | 19108 ft | 187 kts | 53° |
| 2026-04-20 15:34 | 30.63539 | -88.56291 | 19351 ft | 188 kts | 53° |
| 2026-04-20 15:35 | 30.64143 | -88.54937 | 19599 ft | 189 kts | 53° |
| 2026-04-20 15:35 | 30.64749 | -88.53579 | 19843 ft | 190 kts | 53° |
| 2026-04-20 15:35 | 30.65357 | -88.52214 | 20086 ft | 191 kts | 53° |
| 2026-04-20 15:35 | 30.65968 | -88.50845 | 20332 ft | 192 kts | 53° |
| 2026-04-20 15:36 | 30.66584 | -88.49467 | 20571 ft | 192 kts | 53° |
| 2026-04-20 15:36 | 30.67200 | -88.48083 | 20818 ft | 193 kts | 53° |
| 2026-04-20 15:36 | 30.67819 | -88.46694 | 21052 ft | 195 kts | 52° |
| 2026-04-20 15:36 | 30.68446 | -88.45287 | 21274 ft | 197 kts | 52° |
| 2026-04-20 15:37 | 30.69076 | -88.43873 | 21510 ft | 197 kts | 52° |
| 2026-04-20 15:37 | 30.69707 | -88.42453 | 21752 ft | 198 kts | 52° |
| 2026-04-20 15:37 | 30.70333 | -88.41047 | 21984 ft | 199 kts | 52° |
| 2026-04-20 15:37 | 30.70971 | -88.39612 | 22215 ft | 200 kts | 52° |
| 2026-04-20 15:38 | 30.71611 | -88.38169 | 22449 ft | 201 kts | 52° |
| 2026-04-20 15:38 | 30.72252 | -88.36722 | 22678 ft | 202 kts | 53° |
| 2026-04-20 15:38 | 30.72528 | -88.35078 | 22888 ft | 217 kts | 94° |
| 2026-04-20 15:38 | 30.72319 | -88.33334 | 23117 ft | 218 kts | 94° |
| 2026-04-20 15:39 | 30.72144 | -88.31578 | 23327 ft | 220 kts | 93° |
| 2026-04-20 15:39 | 30.71961 | -88.29806 | 23547 ft | 221 kts | 93° |
| 2026-04-20 15:39 | 30.71771 | -88.28031 | 23768 ft | 222 kts | 93° |
| 2026-04-20 15:39 | 30.71579 | -88.26247 | 23986 ft | 223 kts | 93° |
| 2026-04-20 15:40 | 30.71453 | -88.25059 | 24099 ft | 224 kts | 93° |
| 2026-04-20 15:40 | 30.71262 | -88.23261 | 24270 ft | 225 kts | 93° |
| 2026-04-20 15:40 | 30.71069 | -88.21450 | 24441 ft | 226 kts | 93° |
| 2026-04-20 15:40 | 30.70875 | -88.19631 | 24612 ft | 227 kts | 93° |
| 2026-04-20 15:41 | 30.70679 | -88.17800 | 24776 ft | 229 kts | 93° |
| 2026-04-20 15:41 | 30.70483 | -88.15960 | 24946 ft | 230 kts | 93° |
| 2026-04-20 15:41 | 30.70286 | -88.14116 | 25115 ft | 231 kts | 94° |
| 2026-04-20 15:41 | 30.70085 | -88.12260 | 25283 ft | 232 kts | 94° |
| 2026-04-20 15:42 | 30.69885 | -88.10398 | 25445 ft | 233 kts | 93° |
| 2026-04-20 15:42 | 30.69684 | -88.08525 | 25622 ft | 235 kts | 93° |
| 2026-04-20 15:42 | 30.69482 | -88.06654 | 25763 ft | 237 kts | 94° |
| 2026-04-20 15:42 | 30.69277 | -88.04748 | 25931 ft | 238 kts | 93° |
| 2026-04-20 15:43 | 30.69071 | -88.02834 | 26095 ft | 239 kts | 93° |
| 2026-04-20 15:43 | 30.68862 | -88.00914 | 26258 ft | 240 kts | 94° |
| 2026-04-20 15:43 | 30.68654 | -87.98988 | 26421 ft | 241 kts | 94° |
| 2026-04-20 15:43 | 30.68443 | -87.97052 | 26579 ft | 242 kts | 94° |
| 2026-04-20 15:44 | 30.68232 | -87.95108 | 26739 ft | 243 kts | 94° |
| 2026-04-20 15:44 | 30.68020 | -87.93156 | 26895 ft | 244 kts | 94° |
| 2026-04-20 15:44 | 30.67807 | -87.91197 | 27056 ft | 245 kts | 94° |
| 2026-04-20 15:44 | 30.67595 | -87.89255 | 27212 ft | 246 kts | 94° |
| 2026-04-20 15:45 | 30.67379 | -87.87282 | 27365 ft | 247 kts | 94° |
| 2026-04-20 15:45 | 30.67163 | -87.85303 | 27518 ft | 248 kts | 94° |
| 2026-04-20 15:45 | 30.66945 | -87.83314 | 27672 ft | 249 kts | 94° |
| 2026-04-20 15:45 | 30.66725 | -87.81316 | 27811 ft | 250 kts | 94° |
| 2026-04-20 15:46 | 30.66504 | -87.79311 | 27959 ft | 251 kts | 94° |
| 2026-04-20 15:46 | 30.66283 | -87.77297 | 28113 ft | 252 kts | 94° |
| 2026-04-20 15:46 | 30.66060 | -87.75276 | 28265 ft | 253 kts | 94° |
| 2026-04-20 15:46 | 30.65837 | -87.73250 | 28411 ft | 253 kts | 94° |
| 2026-04-20 15:47 | 30.65612 | -87.71216 | 28560 ft | 254 kts | 94° |
| 2026-04-20 15:47 | 30.65385 | -87.69165 | 28700 ft | 256 kts | 94° |
| 2026-04-20 15:47 | 30.65156 | -87.67110 | 28839 ft | 257 kts | 94° |
| 2026-04-20 15:47 | 30.64927 | -87.65048 | 28987 ft | 258 kts | 94° |
| 2026-04-20 15:48 | 30.64701 | -87.63002 | 29126 ft | 259 kts | 94° |
| 2026-04-20 15:48 | 30.64468 | -87.60920 | 29267 ft | 260 kts | 94° |
| 2026-04-20 15:48 | 30.64236 | -87.58828 | 29348 ft | 264 kts | 94° |
| 2026-04-20 15:48 | 30.63994 | -87.56675 | 29355 ft | 273 kts | 94° |
| 2026-04-20 15:49 | 30.63744 | -87.54457 | 29355 ft | 281 kts | 94° |
| 2026-04-20 15:49 | 30.63488 | -87.52169 | 29353 ft | 289 kts | 94° |
| 2026-04-20 15:49 | 30.63225 | -87.49820 | 29351 ft | 298 kts | 94° |
| 2026-04-20 15:50 | 30.62678 | -87.44958 | 29350 ft | 313 kts | 95° |
| 2026-04-20 15:50 | 30.62100 | -87.39836 | 29345 ft | 325 kts | 95° |
| 2026-04-20 15:51 | 30.61499 | -87.34529 | 29342 ft | 336 kts | 95° |
| 2026-04-20 15:51 | 30.60876 | -87.29070 | 29343 ft | 345 kts | 95° |
| 2026-04-20 15:52 | 30.60246 | -87.23539 | 29339 ft | 350 kts | 95° |
| 2026-04-20 15:52 | 30.59598 | -87.17891 | 29354 ft | 355 kts | 95° |
| 2026-04-20 15:53 | 30.58610 | -87.09307 | 29363 ft | 360 kts | 95° |
| 2026-04-20 15:53 | 30.57941 | -87.03527 | 29365 ft | 362 kts | 95° |
| 2026-04-20 15:54 | 30.57271 | -86.97755 | 29366 ft | 364 kts | 96° |
| 2026-04-20 15:54 | 30.56590 | -86.91923 | 29360 ft | 366 kts | 96° |
| 2026-04-20 15:55 | 30.55903 | -86.86060 | 29366 ft | 367 kts | 96° |
| 2026-04-20 15:55 | 30.55211 | -86.80173 | 29364 ft | 368 kts | 96° |
| 2026-04-20 15:56 | 30.54516 | -86.74281 | 29332 ft | 369 kts | 96° |
| 2026-04-20 15:56 | 30.53815 | -86.68365 | 29341 ft | 370 kts | 96° |
| 2026-04-20 15:57 | 30.53116 | -86.62496 | 29350 ft | 370 kts | 96° |
| 2026-04-20 15:57 | 30.52420 | -86.56580 | 29358 ft | 370 kts | 96° |
| 2026-04-20 15:58 | 30.51702 | -86.50660 | 29347 ft | 371 kts | 96° |
| 2026-04-20 15:58 | 30.50992 | -86.44737 | 29347 ft | 371 kts | 96° |
| 2026-04-20 15:59 | 30.50275 | -86.38812 | 29345 ft | 371 kts | 96° |
| 2026-04-20 15:59 | 30.49556 | -86.32887 | 29347 ft | 371 kts | 96° |
| 2026-04-20 16:00 | 30.48838 | -86.26992 | 29339 ft | 371 kts | 96° |
| 2026-04-20 16:00 | 30.48114 | -86.21070 | 29341 ft | 371 kts | 96° |
| 2026-04-20 16:01 | 30.47388 | -86.15148 | 29346 ft | 371 kts | 96° |
| 2026-04-20 16:01 | 30.46658 | -86.09229 | 29345 ft | 371 kts | 96° |
| 2026-04-20 16:02 | 30.45926 | -86.03306 | 29342 ft | 371 kts | 96° |
| 2026-04-20 16:02 | 30.45190 | -85.97380 | 29339 ft | 371 kts | 96° |
| 2026-04-20 16:03 | 30.44452 | -85.91456 | 29331 ft | 371 kts | 96° |
| 2026-04-20 16:03 | 30.43711 | -85.85530 | 29335 ft | 371 kts | 96° |
| 2026-04-20 16:04 | 30.42967 | -85.79603 | 29334 ft | 372 kts | 96° |
| 2026-04-20 16:04 | 30.42224 | -85.73705 | 29334 ft | 372 kts | 96° |
| 2026-04-20 16:05 | 30.41474 | -85.67780 | 29330 ft | 371 kts | 96° |
| 2026-04-20 16:05 | 30.40722 | -85.61859 | 29335 ft | 372 kts | 96° |
| 2026-04-20 16:06 | 30.39967 | -85.55932 | 29331 ft | 372 kts | 96° |
| 2026-04-20 16:06 | 30.39207 | -85.49997 | 29330 ft | 372 kts | 96° |
| 2026-04-20 16:07 | 30.38452 | -85.44109 | 29327 ft | 372 kts | 96° |
| 2026-04-20 16:07 | 30.37688 | -85.38183 | 29302 ft | 372 kts | 96° |
| 2026-04-20 16:08 | 30.36921 | -85.32250 | 29304 ft | 372 kts | 96° |
| 2026-04-20 16:08 | 30.36151 | -85.26318 | 29307 ft | 372 kts | 96° |
| 2026-04-20 16:09 | 30.35378 | -85.20386 | 29308 ft | 373 kts | 96° |
| 2026-04-20 16:09 | 30.34603 | -85.14451 | 29305 ft | 373 kts | 96° |
| 2026-04-20 16:10 | 30.33823 | -85.08516 | 29315 ft | 373 kts | 96° |
| 2026-04-20 16:10 | 30.33042 | -85.02582 | 29318 ft | 373 kts | 96° |
| 2026-04-20 16:11 | 30.32261 | -84.96671 | 29318 ft | 374 kts | 96° |
| 2026-04-20 16:11 | 30.31472 | -84.90724 | 29317 ft | 374 kts | 96° |
| 2026-04-20 16:12 | 30.30680 | -84.84770 | 29317 ft | 374 kts | 96° |
| 2026-04-20 16:12 | 30.29886 | -84.78821 | 29317 ft | 374 kts | 96° |
| 2026-04-20 16:13 | 30.29084 | -84.72870 | 29302 ft | 373 kts | 97° |
| 2026-04-20 16:13 | 30.28291 | -84.66932 | 29302 ft | 373 kts | 97° |
| 2026-04-20 16:14 | 30.27488 | -84.61003 | 29304 ft | 373 kts | 97° |
| 2026-04-20 16:14 | 30.26687 | -84.55083 | 29297 ft | 372 kts | 97° |
| 2026-04-20 16:15 | 30.25882 | -84.49165 | 29290 ft | 372 kts | 97° |
| 2026-04-20 16:15 | 30.25081 | -84.43285 | 29297 ft | 373 kts | 97° |
| 2026-04-20 16:16 | 30.24269 | -84.37359 | 29315 ft | 372 kts | 97° |
| 2026-04-20 16:16 | 30.23457 | -84.31445 | 29318 ft | 372 kts | 97° |
| 2026-04-20 16:17 | 30.22641 | -84.25524 | 29294 ft | 373 kts | 97° |
| 2026-04-20 16:17 | 30.21822 | -84.19603 | 29298 ft | 373 kts | 97° |
| 2026-04-20 16:18 | 30.21000 | -84.13679 | 29300 ft | 373 kts | 97° |
| 2026-04-20 16:18 | 30.20175 | -84.07751 | 29304 ft | 373 kts | 97° |
| 2026-04-20 16:19 | 30.19347 | -84.01829 | 29307 ft | 373 kts | 97° |
| 2026-04-20 16:19 | 30.18521 | -83.95938 | 29302 ft | 373 kts | 97° |
| 2026-04-20 16:20 | 30.17688 | -83.90010 | 29311 ft | 374 kts | 97° |
| 2026-04-20 16:20 | 30.16823 | -83.84082 | 29309 ft | 374 kts | 102° |
| 2026-04-20 16:21 | 30.15844 | -83.81312 | 29305 ft | 372 kts | 123° |
| 2026-04-20 16:21 | 30.14519 | -83.78741 | 29311 ft | 372 kts | 124° |
| 2026-04-20 16:21 | 30.11843 | -83.73633 | 29310 ft | 372 kts | 124° |
| 2026-04-20 16:22 | 30.09186 | -83.68508 | 29320 ft | 372 kts | 124° |
| 2026-04-20 16:22 | 30.06516 | -83.63389 | 29314 ft | 372 kts | 124° |
| 2026-04-20 16:23 | 30.03845 | -83.58263 | 29319 ft | 372 kts | 124° |
| 2026-04-20 16:23 | 30.01174 | -83.53148 | 29326 ft | 372 kts | 124° |
| 2026-04-20 16:24 | 29.98495 | -83.48021 | 29325 ft | 373 kts | 124° |
| 2026-04-20 16:24 | 29.95827 | -83.42927 | 29303 ft | 374 kts | 124° |
| 2026-04-20 16:25 | 29.93145 | -83.37811 | 29290 ft | 372 kts | 125° |
| 2026-04-20 16:25 | 29.90469 | -83.32712 | 29291 ft | 371 kts | 125° |
| 2026-04-20 16:26 | 29.87801 | -83.27634 | 29283 ft | 370 kts | 125° |
| 2026-04-20 16:26 | 29.85134 | -83.22566 | 29282 ft | 370 kts | 125° |
| 2026-04-20 16:27 | 29.82467 | -83.17503 | 29279 ft | 369 kts | 125° |
| 2026-04-20 16:27 | 29.79800 | -83.12447 | 29286 ft | 369 kts | 125° |
| 2026-04-20 16:28 | 29.77583 | -83.08248 | 29284 ft | 369 kts | 125° |
| 2026-04-20 16:28 | 29.74912 | -83.03196 | 29283 ft | 369 kts | 125° |
| 2026-04-20 16:29 | 29.72239 | -82.98147 | 29272 ft | 369 kts | 125° |
| 2026-04-20 16:29 | 29.69562 | -82.93097 | 29283 ft | 369 kts | 125° |
| 2026-04-20 16:30 | 29.66883 | -82.88048 | 29283 ft | 370 kts | 125° |
| 2026-04-20 16:30 | 29.64222 | -82.83039 | 29279 ft | 370 kts | 125° |
| 2026-04-20 16:31 | 29.61543 | -82.78004 | 29273 ft | 368 kts | 126° |
| 2026-04-20 16:31 | 29.58871 | -82.72988 | 29270 ft | 368 kts | 126° |
| 2026-04-20 16:32 | 29.57519 | -82.70457 | 28997 ft | 375 kts | 126° |
| 2026-04-20 16:32 | 29.56137 | -82.67877 | 28709 ft | 382 kts | 126° |
| 2026-04-20 16:32 | 29.54744 | -82.65261 | 28427 ft | 386 kts | 125° |
| 2026-04-20 16:32 | 29.53336 | -82.62617 | 28146 ft | 389 kts | 125° |
| 2026-04-20 16:33 | 29.51915 | -82.59960 | 27871 ft | 392 kts | 125° |
| 2026-04-20 16:33 | 29.50485 | -82.57290 | 27596 ft | 393 kts | 125° |
| 2026-04-20 16:33 | 29.49056 | -82.54619 | 27308 ft | 392 kts | 125° |
| 2026-04-20 16:33 | 29.47626 | -82.51946 | 27043 ft | 392 kts | 125° |
| 2026-04-20 16:34 | 29.46199 | -82.49284 | 26774 ft | 392 kts | 125° |
| 2026-04-20 16:34 | 29.44770 | -82.46621 | 26507 ft | 391 kts | 126° |
| 2026-04-20 16:34 | 29.43344 | -82.43964 | 26243 ft | 391 kts | 125° |
| 2026-04-20 16:34 | 29.41918 | -82.41308 | 25980 ft | 391 kts | 126° |
| 2026-04-20 16:35 | 29.40498 | -82.38663 | 25718 ft | 388 kts | 126° |
| 2026-04-20 16:35 | 29.39083 | -82.36031 | 25462 ft | 387 kts | 126° |
| 2026-04-20 16:35 | 29.37669 | -82.33405 | 25207 ft | 386 kts | 126° |
| 2026-04-20 16:35 | 29.36259 | -82.30785 | 24953 ft | 385 kts | 126° |
| 2026-04-20 16:36 | 29.34873 | -82.28213 | 24705 ft | 384 kts | 126° |
| 2026-04-20 16:36 | 29.33471 | -82.25611 | 24457 ft | 383 kts | 126° |
| 2026-04-20 16:36 | 29.32072 | -82.23017 | 24215 ft | 382 kts | 126° |
| 2026-04-20 16:36 | 29.30678 | -82.20436 | 23944 ft | 380 kts | 125° |
| 2026-04-20 16:37 | 29.29289 | -82.17866 | 23669 ft | 379 kts | 125° |
| 2026-04-20 16:37 | 29.27905 | -82.15305 | 23289 ft | 378 kts | 125° |
| 2026-04-20 16:37 | 29.26516 | -82.12748 | 22825 ft | 378 kts | 125° |
| 2026-04-20 16:37 | 29.25134 | -82.10192 | 22360 ft | 377 kts | 125° |
| 2026-04-20 16:38 | 29.23760 | -82.07646 | 21902 ft | 375 kts | 125° |
| 2026-04-20 16:38 | 29.22388 | -82.05113 | 21450 ft | 372 kts | 125° |
| 2026-04-20 16:38 | 29.21028 | -82.02605 | 21005 ft | 369 kts | 125° |
| 2026-04-20 16:38 | 29.19678 | -82.00115 | 20566 ft | 366 kts | 125° |
| 2026-04-20 16:39 | 29.18337 | -81.97645 | 20131 ft | 363 kts | 124° |
| 2026-04-20 16:39 | 29.17011 | -81.95202 | 19705 ft | 360 kts | 124° |
| 2026-04-20 16:39 | 29.15694 | -81.92778 | 19284 ft | 357 kts | 124° |
| 2026-04-20 16:39 | 29.14389 | -81.90379 | 18869 ft | 354 kts | 124° |
| 2026-04-20 16:40 | 29.13094 | -81.88000 | 18443 ft | 351 kts | 124° |
| 2026-04-20 16:40 | 29.11811 | -81.85642 | 17969 ft | 348 kts | 124° |
| 2026-04-20 16:40 | 29.10557 | -81.83336 | 17501 ft | 344 kts | 124° |
| 2026-04-20 16:40 | 29.09292 | -81.81017 | 16997 ft | 342 kts | 124° |
| 2026-04-20 16:41 | 29.08037 | -81.78716 | 16493 ft | 340 kts | 123° |
| 2026-04-20 16:41 | 29.06798 | -81.76461 | 16002 ft | 330 kts | 124° |
| 2026-04-20 16:41 | 29.05596 | -81.74262 | 15516 ft | 322 kts | 123° |
| 2026-04-20 16:41 | 29.04429 | -81.72105 | 15034 ft | 316 kts | 123° |
| 2026-04-20 16:42 | 29.03279 | -81.69993 | 14560 ft | 310 kts | 123° |
| 2026-04-20 16:42 | 29.02142 | -81.67921 | 14096 ft | 305 kts | 122° |
| 2026-04-20 16:42 | 29.01023 | -81.65876 | 13582 ft | 301 kts | 122° |
| 2026-04-20 16:42 | 28.99921 | -81.63857 | 13071 ft | 298 kts | 122° |
| 2026-04-20 16:43 | 28.98754 | -81.61927 | 12564 ft | 293 kts | 130° |
| 2026-04-20 16:43 | 28.97395 | -81.60215 | 12053 ft | 289 kts | 134° |
| 2026-04-20 16:43 | 28.96046 | -81.58532 | 11558 ft | 285 kts | 131° |
| 2026-04-20 16:43 | 28.94799 | -81.56793 | 11063 ft | 281 kts | 129° |
| 2026-04-20 16:44 | 28.93573 | -81.55071 | 10556 ft | 277 kts | 129° |
| 2026-04-20 16:44 | 28.92366 | -81.53408 | 10032 ft | 267 kts | 130° |
| 2026-04-20 16:44 | 28.91207 | -81.51821 | 9471 ft | 261 kts | 129° |
| 2026-04-20 16:44 | 28.90056 | -81.50244 | 8911 ft | 257 kts | 129° |
| 2026-04-20 16:45 | 28.88911 | -81.48673 | 8364 ft | 256 kts | 129° |
| 2026-04-20 16:45 | 28.87764 | -81.47130 | 7826 ft | 253 kts | 129° |
| 2026-04-20 16:45 | 28.86621 | -81.45632 | 7301 ft | 246 kts | 128° |
| 2026-04-20 16:45 | 28.85537 | -81.44151 | 6771 ft | 240 kts | 126° |
| 2026-04-20 16:46 | 28.84490 | -81.42700 | 6221 ft | 233 kts | 126° |
| 2026-04-20 16:46 | 28.83455 | -81.41308 | 5664 ft | 226 kts | 128° |
| 2026-04-20 16:46 | 28.82455 | -81.39963 | 5129 ft | 219 kts | 128° |
| 2026-04-20 16:46 | 28.81481 | -81.38656 | 4576 ft | 213 kts | 127° |
| 2026-04-20 16:47 | 28.80540 | -81.37395 | 4025 ft | 203 kts | 125° |
| 2026-04-20 16:47 | 28.79649 | -81.36202 | 3485 ft | 193 kts | 123° |
| 2026-04-20 16:47 | 28.78805 | -81.35050 | 2933 ft | 187 kts | 123° |
| 2026-04-20 16:47 | 28.78201 | -81.33854 | 2376 ft | 156 kts | 97° |
| 2026-04-20 16:48 | 28.78150 | -81.32765 | 1795 ft | 127 kts | 82° |
| 2026-04-20 16:48 | 28.78158 | -81.31787 | 1228 ft | 121 kts | 84° |
| 2026-04-20 16:48 | 28.78167 | -81.30880 | 1044 ft | 114 kts | 81° |
| 2026-04-20 16:48 | 28.78194 | -81.29896 | 891 ft | 131 kts | 83° |
| 2026-04-20 16:49 | 28.78195 | -81.28831 | 716 ft | 135 kts | 85° |
| 2026-04-20 16:49 | 28.78164 | -81.27909 | 554 ft | 100 kts | 85° |
| 2026-04-20 16:49 | 28.78144 | -81.27220 | 444 ft | 87 kts | 79° |
| 2026-04-20 16:49 | 28.78171 | -81.26502 | 357 ft | 90 kts | 83° |
| 2026-04-20 16:50 | 28.78161 | -81.25772 | 194 ft | 94 kts | 85° |
| 2026-04-20 16:50 | 28.78172 | -81.25054 | 66 ft | 82 kts | 88° |
| 2026-04-20 16:50 | 28.78164 | -81.24544 | 56 ft | 43 kts | 78° |
| 2026-04-20 16:50 | 28.78177 | -81.24351 | 58 ft | 20 kts | 97° |
| 2026-04-20 16:51 | 28.78174 | -81.24176 | 61 ft | 23 kts | 89° |
| 2026-04-20 16:51 | 28.78116 | -81.24023 | 57 ft | 24 kts | 185° |
| 2026-04-20 16:51 | 28.78067 | -81.24201 | 59 ft | 25 kts | 277° |
| 2026-04-20 16:51 | 28.78065 | -81.24399 | 58 ft | 25 kts | 272° |
| 2026-04-20 16:52 | 28.78065 | -81.24553 | 58 ft | 15 kts | 268° |
| 2026-04-20 16:52 | 28.78063 | -81.24663 | 56 ft | 13 kts | 269° |
| 2026-04-20 16:52 | 28.78064 | -81.24795 | 56 ft | 23 kts | 271° |
| 2026-04-20 16:52 | 28.78062 | -81.24991 | 56 ft | 15 kts | 251° |
| 2026-04-20 16:53 | 28.77989 | -81.24990 | 58 ft | 11 kts | 146° |
| 2026-04-20 16:53 | 28.77898 | -81.24950 | 56 ft | 18 kts | 171° |
| 2026-04-20 16:53 | 28.77848 | -81.24946 | 55 ft | 0 kts | 179° |
| 2026-04-20 16:53 | 28.77846 | -81.24946 | 58 ft | 0 kts | 179° |